sensor_id;sensor_type;location;lat;lon;timestamp;temperature;humidity
11091;DHT22;5599;52.210;21.046;2023-03-04T00:01:42;1.60;99.90
11091;DHT22;5599;52.210;21.046;2023-03-04T00:04:14;1.60;99.90
11091;DHT22;5599;52.210;21.046;2023-03-04T00:06:43;1.60;99.90
11091;DHT22;5599;52.210;21.046;2023-03-04T00:09:12;1.60;99.90
11091;DHT22;5599;52.210;21.046;2023-03-04T00:11:46;1.70;99.90
11091;DHT22;5599;52.210;21.046;2023-03-04T00:14:16;1.70;99.90
11091;DHT22;5599;52.210;21.046;2023-03-04T00:16:47;1.60;52.00
11091;DHT22;5599;52.210;21.046;2023-03-04T00:19:16;1.70;99.90
11091;DHT22;5599;52.210;21.046;2023-03-04T00:21:46;1.70;99.90
11091;DHT22;5599;52.210;21.046;2023-03-04T00:24:16;1.70;99.90
11091;DHT22;5599;52.210;21.046;2023-03-04T00:26:45;1.80;99.90
11091;DHT22;5599;52.210;21.046;2023-03-04T00:29:19;1.80;99.90
11091;DHT22;5599;52.210;21.046;2023-03-04T00:31:53;1.80;99.90
11091;DHT22;5599;52.210;21.046;2023-03-04T00:34:27;1.80;99.90
11091;DHT22;5599;52.210;21.046;2023-03-04T00:37:01;1.80;99.90
11091;DHT22;5599;52.210;21.046;2023-03-04T00:39:30;1.80;99.90
11091;DHT22;5599;52.210;21.046;2023-03-04T00:42:00;1.80;94.30
11091;DHT22;5599;52.210;21.046;2023-03-04T00:44:30;1.80;99.90
11091;DHT22;5599;52.210;21.046;2023-03-04T00:47:00;1.80;99.90
11091;DHT22;5599;52.210;21.046;2023-03-04T00:49:32;1.80;99.90
11091;DHT22;5599;52.210;21.046;2023-03-04T00:52:02;1.80;99.90
11091;DHT22;5599;52.210;21.046;2023-03-04T00:54:35;1.80;99.90
11091;DHT22;5599;52.210;21.046;2023-03-04T00:57:04;1.80;99.90
11091;DHT22;5599;52.210;21.046;2023-03-04T00:59:36;1.80;99.90
11091;DHT22;5599;52.210;21.046;2023-03-04T01:02:07;1.80;99.90
11091;DHT22;5599;52.210;21.046;2023-03-04T01:04:38;1.80;91.70
11091;DHT22;5599;52.210;21.046;2023-03-04T01:07:11;1.70;99.90
11091;DHT22;5599;52.210;21.046;2023-03-04T01:09:44;1.80;99.90
11091;DHT22;5599;52.210;21.046;2023-03-04T01:12:14;1.80;99.90
11091;DHT22;5599;52.210;21.046;2023-03-04T01:14:43;1.80;99.90
11091;DHT22;5599;52.210;21.046;2023-03-04T01:17:18;1.90;99.90
11091;DHT22;5599;52.210;21.046;2023-03-04T01:19:47;1.90;99.90
11091;DHT22;5599;52.210;21.046;2023-03-04T01:22:17;1.80;99.90
11091;DHT22;5599;52.210;21.046;2023-03-04T01:24:47;1.80;99.90
11091;DHT22;5599;52.210;21.046;2023-03-04T01:27:16;1.90;99.90
11091;DHT22;5599;52.210;21.046;2023-03-04T01:29:45;1.90;99.90
11091;DHT22;5599;52.210;21.046;2023-03-04T01:32:16;1.80;99.90
11091;DHT22;5599;52.210;21.046;2023-03-04T01:34:46;1.80;99.90
11091;DHT22;5599;52.210;21.046;2023-03-04T01:37:15;1.80;99.90
11091;DHT22;5599;52.210;21.046;2023-03-04T01:39:46;1.80;99.90
11091;DHT22;5599;52.210;21.046;2023-03-04T01:42:19;1.80;99.90
11091;DHT22;5599;52.210;21.046;2023-03-04T01:44:50;1.70;99.90
11091;DHT22;5599;52.210;21.046;2023-03-04T01:47:22;1.70;99.90
11091;DHT22;5599;52.210;21.046;2023-03-04T01:49:56;1.70;99.90
11091;DHT22;5599;52.210;21.046;2023-03-04T01:52:26;1.70;99.90
11091;DHT22;5599;52.210;21.046;2023-03-04T01:54:56;1.60;99.90
11091;DHT22;5599;52.210;21.046;2023-03-04T01:57:26;1.60;99.90
11091;DHT22;5599;52.210;21.046;2023-03-04T02:00:21;1.60;1.00
11091;DHT22;5599;52.210;21.046;2023-03-04T02:02:56;1.60;1.00
11091;DHT22;5599;52.210;21.046;2023-03-04T02:05:26;1.50;1.00
11091;DHT22;5599;52.210;21.046;2023-03-04T02:07:56;1.60;1.00
11091;DHT22;5599;52.210;21.046;2023-03-04T02:10:27;1.60;1.00
11091;DHT22;5599;52.210;21.046;2023-03-04T02:12:57;1.60;1.00
11091;DHT22;5599;52.210;21.046;2023-03-04T02:15:27;1.60;1.00
11091;DHT22;5599;52.210;21.046;2023-03-04T02:17:58;1.60;1.00
11091;DHT22;5599;52.210;21.046;2023-03-04T02:20:37;1.60;1.00
11091;DHT22;5599;52.210;21.046;2023-03-04T02:23:15;1.60;99.90
11091;DHT22;5599;52.210;21.046;2023-03-04T02:25:49;1.60;1.00
11091;DHT22;5599;52.210;21.046;2023-03-04T02:28:21;1.60;1.00
11091;DHT22;5599;52.210;21.046;2023-03-04T02:30:50;1.60;1.00
11091;DHT22;5599;52.210;21.046;2023-03-04T02:33:20;1.60;99.90
11091;DHT22;5599;52.210;21.046;2023-03-04T02:35:49;1.60;1.00
11091;DHT22;5599;52.210;21.046;2023-03-04T02:38:19;1.70;99.90
11091;DHT22;5599;52.210;21.046;2023-03-04T02:40:50;1.70;1.00
11091;DHT22;5599;52.210;21.046;2023-03-04T02:43:21;1.70;1.00
11091;DHT22;5599;52.210;21.046;2023-03-04T02:45:51;1.70;1.00
11091;DHT22;5599;52.210;21.046;2023-03-04T02:48:21;1.70;1.00
11091;DHT22;5599;52.210;21.046;2023-03-04T02:50:52;1.80;1.00
11091;DHT22;5599;52.210;21.046;2023-03-04T02:53:22;1.80;1.00
11091;DHT22;5599;52.210;21.046;2023-03-04T02:55:53;1.80;1.00
11091;DHT22;5599;52.210;21.046;2023-03-04T02:58:25;1.80;1.00
11091;DHT22;5599;52.210;21.046;2023-03-04T03:00:55;1.80;1.00
11091;DHT22;5599;52.210;21.046;2023-03-04T03:03:26;1.90;1.00
11091;DHT22;5599;52.210;21.046;2023-03-04T03:05:56;1.90;1.00
11091;DHT22;5599;52.210;21.046;2023-03-04T03:08:26;1.90;1.00
11091;DHT22;5599;52.210;21.046;2023-03-04T03:10:55;1.90;1.00
11091;DHT22;5599;52.210;21.046;2023-03-04T03:13:27;1.90;1.00
11091;DHT22;5599;52.210;21.046;2023-03-04T03:15:56;1.90;1.00
11091;DHT22;5599;52.210;21.046;2023-03-04T03:18:26;2.00;1.00
11091;DHT22;5599;52.210;21.046;2023-03-04T03:20:55;2.00;1.00
11091;DHT22;5599;52.210;21.046;2023-03-04T03:23:24;2.00;1.00
11091;DHT22;5599;52.210;21.046;2023-03-04T03:25:54;2.00;1.00
11091;DHT22;5599;52.210;21.046;2023-03-04T03:28:28;2.00;1.00
11091;DHT22;5599;52.210;21.046;2023-03-04T03:30:57;2.10;1.00
11091;DHT22;5599;52.210;21.046;2023-03-04T03:33:26;2.10;1.00
11091;DHT22;5599;52.210;21.046;2023-03-04T03:35:56;2.10;1.00
11091;DHT22;5599;52.210;21.046;2023-03-04T03:38:27;2.20;99.90
11091;DHT22;5599;52.210;21.046;2023-03-04T03:40:56;2.20;99.90
11091;DHT22;5599;52.210;21.046;2023-03-04T03:43:25;2.20;99.90
11091;DHT22;5599;52.210;21.046;2023-03-04T03:45:56;2.20;1.00
11091;DHT22;5599;52.210;21.046;2023-03-04T03:48:25;2.20;99.90
11091;DHT22;5599;52.210;21.046;2023-03-04T03:50:54;2.30;99.90
11091;DHT22;5599;52.210;21.046;2023-03-04T03:53:24;2.40;99.90
11091;DHT22;5599;52.210;21.046;2023-03-04T03:55:54;2.40;99.90
11091;DHT22;5599;52.210;21.046;2023-03-04T03:58:23;2.30;99.90
11091;DHT22;5599;52.210;21.046;2023-03-04T04:00:53;2.40;99.90
11091;DHT22;5599;52.210;21.046;2023-03-04T04:03:26;2.40;99.90
11091;DHT22;5599;52.210;21.046;2023-03-04T04:05:56;2.40;99.90
11091;DHT22;5599;52.210;21.046;2023-03-04T04:08:25;2.40;99.90
11091;DHT22;5599;52.210;21.046;2023-03-04T04:10:54;2.40;99.90
11091;DHT22;5599;52.210;21.046;2023-03-04T04:13:23;2.40;99.90
11091;DHT22;5599;52.210;21.046;2023-03-04T04:15:53;2.40;99.90
11091;DHT22;5599;52.210;21.046;2023-03-04T04:18:22;2.50;99.90
11091;DHT22;5599;52.210;21.046;2023-03-04T04:20:54;2.50;99.90
11091;DHT22;5599;52.210;21.046;2023-03-04T04:23:23;2.50;99.90
11091;DHT22;5599;52.210;21.046;2023-03-04T04:25:54;2.50;99.90
11091;DHT22;5599;52.210;21.046;2023-03-04T04:28:23;2.50;99.90
11091;DHT22;5599;52.210;21.046;2023-03-04T04:30:53;2.40;99.90
11091;DHT22;5599;52.210;21.046;2023-03-04T04:33:22;2.40;99.90
11091;DHT22;5599;52.210;21.046;2023-03-04T04:35:53;2.50;99.90
11091;DHT22;5599;52.210;21.046;2023-03-04T04:38:22;2.50;99.90
11091;DHT22;5599;52.210;21.046;2023-03-04T04:40:52;2.50;99.90
11091;DHT22;5599;52.210;21.046;2023-03-04T04:43:22;2.60;99.90
11091;DHT22;5599;52.210;21.046;2023-03-04T04:45:51;2.60;99.90
11091;DHT22;5599;52.210;21.046;2023-03-04T04:48:20;2.60;99.90
11091;DHT22;5599;52.210;21.046;2023-03-04T04:50:54;2.70;99.90
11091;DHT22;5599;52.210;21.046;2023-03-04T04:53:24;2.60;93.00
11091;DHT22;5599;52.210;21.046;2023-03-04T04:55:53;2.60;99.90
11091;DHT22;5599;52.210;21.046;2023-03-04T04:58:22;2.60;90.20
11091;DHT22;5599;52.210;21.046;2023-03-04T05:00:55;2.60;80.70
11091;DHT22;5599;52.210;21.046;2023-03-04T05:03:25;2.70;99.90
11091;DHT22;5599;52.210;21.046;2023-03-04T05:05:56;2.70;96.10
11091;DHT22;5599;52.210;21.046;2023-03-04T05:08:26;2.70;99.90
11091;DHT22;5599;52.210;21.046;2023-03-04T05:10:55;2.60;99.90
11091;DHT22;5599;52.210;21.046;2023-03-04T05:13:25;2.70;85.90
11091;DHT22;5599;52.210;21.046;2023-03-04T05:15:55;2.70;99.90
11091;DHT22;5599;52.210;21.046;2023-03-04T05:18:26;2.70;1.00
11091;DHT22;5599;52.210;21.046;2023-03-04T05:20:58;2.70;99.90
11091;DHT22;5599;52.210;21.046;2023-03-04T05:23:30;2.70;47.40
11091;DHT22;5599;52.210;21.046;2023-03-04T05:26:00;2.70;99.90
11091;DHT22;5599;52.210;21.046;2023-03-04T05:28:29;2.80;17.50
11091;DHT22;5599;52.210;21.046;2023-03-04T05:30:59;2.70;1.00
11091;DHT22;5599;52.210;21.046;2023-03-04T05:33:29;2.70;91.50
11091;DHT22;5599;52.210;21.046;2023-03-04T05:36:00;2.80;72.80
11091;DHT22;5599;52.210;21.046;2023-03-04T05:38:29;2.80;1.00
11091;DHT22;5599;52.210;21.046;2023-03-04T05:40:59;2.70;1.00
11091;DHT22;5599;52.210;21.046;2023-03-04T05:43:30;2.80;99.90
11091;DHT22;5599;52.210;21.046;2023-03-04T05:46:01;2.80;33.30
11091;DHT22;5599;52.210;21.046;2023-03-04T05:48:31;2.80;64.50
11091;DHT22;5599;52.210;21.046;2023-03-04T05:51:01;2.80;99.90
11091;DHT22;5599;52.210;21.046;2023-03-04T05:53:30;2.80;92.80
11091;DHT22;5599;52.210;21.046;2023-03-04T05:56:00;2.90;1.00
11091;DHT22;5599;52.210;21.046;2023-03-04T05:58:34;2.90;12.10
11091;DHT22;5599;52.210;21.046;2023-03-04T06:01:04;2.90;1.00
11091;DHT22;5599;52.210;21.046;2023-03-04T06:03:33;2.90;1.00
11091;DHT22;5599;52.210;21.046;2023-03-04T06:06:05;2.90;1.00
11091;DHT22;5599;52.210;21.046;2023-03-04T06:08:34;2.90;1.00
11091;DHT22;5599;52.210;21.046;2023-03-04T06:11:03;3.00;1.00
11091;DHT22;5599;52.210;21.046;2023-03-04T06:13:33;2.90;1.00
11091;DHT22;5599;52.210;21.046;2023-03-04T06:16:03;2.80;1.00
11091;DHT22;5599;52.210;21.046;2023-03-04T06:18:32;2.90;43.70
11091;DHT22;5599;52.210;21.046;2023-03-04T06:21:04;3.00;27.70
11091;DHT22;5599;52.210;21.046;2023-03-04T06:23:33;3.00;1.00
11091;DHT22;5599;52.210;21.046;2023-03-04T06:26:03;2.90;36.20
11091;DHT22;5599;52.210;21.046;2023-03-04T06:28:36;2.90;2.50
11091;DHT22;5599;52.210;21.046;2023-03-04T06:31:05;2.90;1.00
11091;DHT22;5599;52.210;21.046;2023-03-04T06:33:34;2.90;40.40
11091;DHT22;5599;52.210;21.046;2023-03-04T06:36:06;2.90;99.30
11091;DHT22;5599;52.210;21.046;2023-03-04T06:38:35;2.90;99.90
11091;DHT22;5599;52.210;21.046;2023-03-04T06:41:09;3.00;1.00
11091;DHT22;5599;52.210;21.046;2023-03-04T06:43:39;3.00;27.90
11091;DHT22;5599;52.210;21.046;2023-03-04T06:46:09;3.00;99.90
11091;DHT22;5599;52.210;21.046;2023-03-04T06:48:38;3.00;92.50
11091;DHT22;5599;52.210;21.046;2023-03-04T06:51:10;3.10;14.90
11091;DHT22;5599;52.210;21.046;2023-03-04T06:53:40;3.10;99.90
11091;DHT22;5599;52.210;21.046;2023-03-04T06:56:11;3.00;30.40
11091;DHT22;5599;52.210;21.046;2023-03-04T06:58:42;3.00;99.90
11091;DHT22;5599;52.210;21.046;2023-03-04T07:01:13;3.00;99.90
11091;DHT22;5599;52.210;21.046;2023-03-04T07:03:43;3.00;99.90
11091;DHT22;5599;52.210;21.046;2023-03-04T07:06:16;3.10;99.90
11091;DHT22;5599;52.210;21.046;2023-03-04T07:08:46;3.10;99.90
11091;DHT22;5599;52.210;21.046;2023-03-04T07:11:16;3.00;72.10
11091;DHT22;5599;52.210;21.046;2023-03-04T07:13:45;3.00;99.90
11091;DHT22;5599;52.210;21.046;2023-03-04T07:16:17;3.00;99.90
11091;DHT22;5599;52.210;21.046;2023-03-04T07:18:47;3.00;99.90
11091;DHT22;5599;52.210;21.046;2023-03-04T07:21:18;3.00;99.90
11091;DHT22;5599;52.210;21.046;2023-03-04T07:23:47;3.00;99.90
11091;DHT22;5599;52.210;21.046;2023-03-04T07:26:17;3.00;99.90
11091;DHT22;5599;52.210;21.046;2023-03-04T07:28:46;3.00;99.90
11091;DHT22;5599;52.210;21.046;2023-03-04T07:31:21;3.00;99.90
11091;DHT22;5599;52.210;21.046;2023-03-04T07:33:51;3.00;83.80
11091;DHT22;5599;52.210;21.046;2023-03-04T07:36:21;3.00;99.90
11091;DHT22;5599;52.210;21.046;2023-03-04T07:38:51;3.00;99.90
11091;DHT22;5599;52.210;21.046;2023-03-04T07:41:22;3.10;12.20
11091;DHT22;5599;52.210;21.046;2023-03-04T07:43:52;3.10;1.00
11091;DHT22;5599;52.210;21.046;2023-03-04T07:46:22;3.10;1.00
11091;DHT22;5599;52.210;21.046;2023-03-04T07:48:51;3.10;1.00
11091;DHT22;5599;52.210;21.046;2023-03-04T07:51:24;3.10;1.00
11091;DHT22;5599;52.210;21.046;2023-03-04T07:53:55;3.20;1.00
11091;DHT22;5599;52.210;21.046;2023-03-04T07:56:26;3.20;1.00
11091;DHT22;5599;52.210;21.046;2023-03-04T07:58:56;3.20;1.00
11091;DHT22;5599;52.210;21.046;2023-03-04T08:01:27;3.20;99.90
11091;DHT22;5599;52.210;21.046;2023-03-04T08:03:56;3.20;1.00
11091;DHT22;5599;52.210;21.046;2023-03-04T08:06:28;3.40;1.00
11091;DHT22;5599;52.210;21.046;2023-03-04T08:08:58;3.30;99.90
11091;DHT22;5599;52.210;21.046;2023-03-04T08:11:28;3.30;99.90
11091;DHT22;5599;52.210;21.046;2023-03-04T08:13:58;3.30;99.90
11091;DHT22;5599;52.210;21.046;2023-03-04T08:16:27;3.40;99.90
11091;DHT22;5599;52.210;21.046;2023-03-04T08:18:58;3.40;1.00
11091;DHT22;5599;52.210;21.046;2023-03-04T08:21:30;3.50;1.00
11091;DHT22;5599;52.210;21.046;2023-03-04T08:24:00;3.50;1.00
11091;DHT22;5599;52.210;21.046;2023-03-04T08:26:38;3.50;99.90
11091;DHT22;5599;52.210;21.046;2023-03-04T08:29:10;3.50;1.00
11091;DHT22;5599;52.210;21.046;2023-03-04T08:31:40;3.40;99.90
11091;DHT22;5599;52.210;21.046;2023-03-04T08:34:09;3.50;1.00
11091;DHT22;5599;52.210;21.046;2023-03-04T08:36:41;3.50;2.30
11091;DHT22;5599;52.210;21.046;2023-03-04T08:39:12;3.50;1.00
11091;DHT22;5599;52.210;21.046;2023-03-04T08:41:43;3.60;1.00
11091;DHT22;5599;52.210;21.046;2023-03-04T08:44:13;3.60;99.90
11091;DHT22;5599;52.210;21.046;2023-03-04T08:46:43;3.50;99.90
11091;DHT22;5599;52.210;21.046;2023-03-04T08:49:12;3.50;1.00
11091;DHT22;5599;52.210;21.046;2023-03-04T08:51:43;3.50;1.00
11091;DHT22;5599;52.210;21.046;2023-03-04T08:54:13;3.60;1.00
11091;DHT22;5599;52.210;21.046;2023-03-04T08:56:42;3.60;99.90
11091;DHT22;5599;52.210;21.046;2023-03-04T08:59:11;3.60;1.00
11091;DHT22;5599;52.210;21.046;2023-03-04T09:01:40;3.60;1.00
11091;DHT22;5599;52.210;21.046;2023-03-04T09:04:10;3.50;99.90
11091;DHT22;5599;52.210;21.046;2023-03-04T09:06:39;3.50;1.00
11091;DHT22;5599;52.210;21.046;2023-03-04T09:09:10;3.60;1.00
11091;DHT22;5599;52.210;21.046;2023-03-04T09:11:39;3.60;1.00
11091;DHT22;5599;52.210;21.046;2023-03-04T09:14:09;3.60;1.00
11091;DHT22;5599;52.210;21.046;2023-03-04T09:16:38;3.70;1.00
11091;DHT22;5599;52.210;21.046;2023-03-04T09:19:08;3.70;1.00
11091;DHT22;5599;52.210;21.046;2023-03-04T09:21:37;3.80;1.00
11091;DHT22;5599;52.210;21.046;2023-03-04T09:24:07;3.90;99.90
11091;DHT22;5599;52.210;21.046;2023-03-04T09:26:37;4.00;1.00
11091;DHT22;5599;52.210;21.046;2023-03-04T09:29:07;4.00;1.00
11091;DHT22;5599;52.210;21.046;2023-03-04T09:31:36;4.10;1.00
11091;DHT22;5599;52.210;21.046;2023-03-04T09:34:06;4.10;53.20
11091;DHT22;5599;52.210;21.046;2023-03-04T09:36:35;4.10;99.90
11091;DHT22;5599;52.210;21.046;2023-03-04T09:39:05;4.20;1.00
11091;DHT22;5599;52.210;21.046;2023-03-04T09:41:40;4.20;99.90
11091;DHT22;5599;52.210;21.046;2023-03-04T09:44:15;4.10;6.20
11091;DHT22;5599;52.210;21.046;2023-03-04T09:46:49;4.00;99.90
11091;DHT22;5599;52.210;21.046;2023-03-04T09:49:20;4.00;1.00
11091;DHT22;5599;52.210;21.046;2023-03-04T09:51:58;4.00;1.00
11091;DHT22;5599;52.210;21.046;2023-03-04T09:54:58;4.00;1.00
11091;DHT22;5599;52.210;21.046;2023-03-04T09:57:43;3.90;1.00
11091;DHT22;5599;52.210;21.046;2023-03-04T10:00:16;4.00;1.00
11091;DHT22;5599;52.210;21.046;2023-03-04T10:03:09;4.00;99.20
11091;DHT22;5599;52.210;21.046;2023-03-04T10:05:45;4.00;99.90
11091;DHT22;5599;52.210;21.046;2023-03-04T10:08:40;4.00;99.90
11091;DHT22;5599;52.210;21.046;2023-03-04T10:11:13;4.00;99.90
11091;DHT22;5599;52.210;21.046;2023-03-04T10:13:52;4.00;99.90
11091;DHT22;5599;52.210;21.046;2023-03-04T10:16:37;4.00;99.90
11091;DHT22;5599;52.210;21.046;2023-03-04T10:19:23;4.00;1.00
11091;DHT22;5599;52.210;21.046;2023-03-04T10:21:53;4.10;1.00
11091;DHT22;5599;52.210;21.046;2023-03-04T10:24:26;4.10;99.90
11091;DHT22;5599;52.210;21.046;2023-03-04T10:27:00;4.20;97.00
11091;DHT22;5599;52.210;21.046;2023-03-04T10:29:33;4.10;1.00
11091;DHT22;5599;52.210;21.046;2023-03-04T10:32:03;4.10;99.90
11091;DHT22;5599;52.210;21.046;2023-03-04T10:34:32;4.20;99.90
11091;DHT22;5599;52.210;21.046;2023-03-04T10:37:04;4.30;1.00
11091;DHT22;5599;52.210;21.046;2023-03-04T10:39:39;4.30;1.00
11091;DHT22;5599;52.210;21.046;2023-03-04T10:42:25;4.30;99.90
11091;DHT22;5599;52.210;21.046;2023-03-04T10:44:59;4.30;99.90
11091;DHT22;5599;52.210;21.046;2023-03-04T10:47:30;4.40;1.00
11091;DHT22;5599;52.210;21.046;2023-03-04T10:50:04;4.40;99.90
11091;DHT22;5599;52.210;21.046;2023-03-04T10:52:37;4.50;99.90
11091;DHT22;5599;52.210;21.046;2023-03-04T10:55:15;4.50;99.90
11091;DHT22;5599;52.210;21.046;2023-03-04T10:57:48;4.50;1.00
11091;DHT22;5599;52.210;21.046;2023-03-04T11:00:29;4.50;99.90
11091;DHT22;5599;52.210;21.046;2023-03-04T11:03:22;4.50;99.90
11091;DHT22;5599;52.210;21.046;2023-03-04T11:06:20;4.50;1.00
11091;DHT22;5599;52.210;21.046;2023-03-04T11:08:54;4.40;1.00
11091;DHT22;5599;52.210;21.046;2023-03-04T11:11:28;4.40;1.00
11091;DHT22;5599;52.210;21.046;2023-03-04T11:14:11;4.50;47.60
11091;DHT22;5599;52.210;21.046;2023-03-04T11:16:52;4.50;99.90
11091;DHT22;5599;52.210;21.046;2023-03-04T11:19:25;4.60;99.90
11091;DHT22;5599;52.210;21.046;2023-03-04T11:21:58;4.70;25.10
11091;DHT22;5599;52.210;21.046;2023-03-04T11:24:29;4.70;1.00
11091;DHT22;5599;52.210;21.046;2023-03-04T11:27:04;4.70;7.90
11091;DHT22;5599;52.210;21.046;2023-03-04T11:29:38;4.60;1.00
11091;DHT22;5599;52.210;21.046;2023-03-04T11:32:14;4.60;57.60
11091;DHT22;5599;52.210;21.046;2023-03-04T11:34:50;4.60;99.90
11091;DHT22;5599;52.210;21.046;2023-03-04T11:37:25;4.70;90.30
11091;DHT22;5599;52.210;21.046;2023-03-04T11:40:03;4.60;99.20
11091;DHT22;5599;52.210;21.046;2023-03-04T11:42:38;4.60;99.90
11091;DHT22;5599;52.210;21.046;2023-03-04T11:45:12;4.70;99.90
11091;DHT22;5599;52.210;21.046;2023-03-04T11:48:03;4.80;99.90
11091;DHT22;5599;52.210;21.046;2023-03-04T11:50:43;4.70;1.00
11091;DHT22;5599;52.210;21.046;2023-03-04T11:53:43;4.60;1.00
11091;DHT22;5599;52.210;21.046;2023-03-04T11:56:29;4.60;69.40
11091;DHT22;5599;52.210;21.046;2023-03-04T12:02:12;4.60;99.90
11091;DHT22;5599;52.210;21.046;2023-03-04T12:08:08;4.70;99.90
11091;DHT22;5599;52.210;21.046;2023-03-04T12:10:45;4.70;99.90
11091;DHT22;5599;52.210;21.046;2023-03-04T12:16:34;4.70;99.90
11091;DHT22;5599;52.210;21.046;2023-03-04T12:19:15;4.70;99.90
11091;DHT22;5599;52.210;21.046;2023-03-04T12:22:03;4.60;99.90
11091;DHT22;5599;52.210;21.046;2023-03-04T12:25:23;4.60;1.00
11091;DHT22;5599;52.210;21.046;2023-03-04T12:28:02;4.60;1.00
11091;DHT22;5599;52.210;21.046;2023-03-04T12:30:50;4.50;1.00
11091;DHT22;5599;52.210;21.046;2023-03-04T12:33:33;4.40;1.00
11091;DHT22;5599;52.210;21.046;2023-03-04T12:36:12;4.50;1.00
11091;DHT22;5599;52.210;21.046;2023-03-04T12:38:58;4.50;1.00
11091;DHT22;5599;52.210;21.046;2023-03-04T12:41:38;4.60;1.00
11091;DHT22;5599;52.210;21.046;2023-03-04T12:44:14;4.70;1.00
11091;DHT22;5599;52.210;21.046;2023-03-04T12:47:14;4.80;1.00
11091;DHT22;5599;52.210;21.046;2023-03-04T12:49:57;5.00;1.00
11091;DHT22;5599;52.210;21.046;2023-03-04T12:52:41;5.10;99.90
11091;DHT22;5599;52.210;21.046;2023-03-04T12:55:14;5.10;99.90
11091;DHT22;5599;52.210;21.046;2023-03-04T12:57:46;5.30;99.90
11091;DHT22;5599;52.210;21.046;2023-03-04T13:00:23;5.30;99.90
11091;DHT22;5599;52.210;21.046;2023-03-04T13:03:10;5.40;1.00
11091;DHT22;5599;52.210;21.046;2023-03-04T13:05:57;5.50;1.00
11091;DHT22;5599;52.210;21.046;2023-03-04T13:08:36;5.50;99.90
11091;DHT22;5599;52.210;21.046;2023-03-04T13:14:25;5.50;1.00
11091;DHT22;5599;52.210;21.046;2023-03-04T13:16:57;5.50;1.00
11091;DHT22;5599;52.210;21.046;2023-03-04T13:19:56;5.60;99.90
11091;DHT22;5599;52.210;21.046;2023-03-04T13:22:28;5.70;1.00
11091;DHT22;5599;52.210;21.046;2023-03-04T13:25:00;5.90;99.90
11091;DHT22;5599;52.210;21.046;2023-03-04T13:27:49;6.20;1.00
11091;DHT22;5599;52.210;21.046;2023-03-04T13:30:42;6.40;1.00
11091;DHT22;5599;52.210;21.046;2023-03-04T13:34:00;6.60;1.00
11091;DHT22;5599;52.210;21.046;2023-03-04T13:39:38;6.80;99.90
11091;DHT22;5599;52.210;21.046;2023-03-04T13:42:37;6.60;73.90
11091;DHT22;5599;52.210;21.046;2023-03-04T13:45:37;6.40;1.00
11091;DHT22;5599;52.210;21.046;2023-03-04T13:48:24;6.10;1.00
11091;DHT22;5599;52.210;21.046;2023-03-04T13:50:57;4.90;1.00
11091;DHT22;5599;52.210;21.046;2023-03-04T13:53:38;4.50;99.90
11091;DHT22;5599;52.210;21.046;2023-03-04T13:56:28;4.10;1.00
11091;DHT22;5599;52.210;21.046;2023-03-04T14:01:58;3.90;99.90
11091;DHT22;5599;52.210;21.046;2023-03-04T14:04:32;4.00;99.90
11091;DHT22;5599;52.210;21.046;2023-03-04T14:07:15;4.00;99.90
11091;DHT22;5599;52.210;21.046;2023-03-04T14:09:54;4.00;1.00
11091;DHT22;5599;52.210;21.046;2023-03-04T14:12:27;4.00;99.90
11091;DHT22;5599;52.210;21.046;2023-03-04T14:15:03;4.10;1.00
11091;DHT22;5599;52.210;21.046;2023-03-04T14:17:35;4.20;1.00
11091;DHT22;5599;52.210;21.046;2023-03-04T14:20:24;4.30;1.00
11091;DHT22;5599;52.210;21.046;2023-03-04T14:22:54;4.40;99.90
11091;DHT22;5599;52.210;21.046;2023-03-04T14:25:29;4.60;99.90
11091;DHT22;5599;52.210;21.046;2023-03-04T14:28:03;4.70;99.90
11091;DHT22;5599;52.210;21.046;2023-03-04T14:30:34;4.80;1.00
11091;DHT22;5599;52.210;21.046;2023-03-04T14:33:16;5.00;99.90
11091;DHT22;5599;52.210;21.046;2023-03-04T14:35:50;5.00;1.00
11091;DHT22;5599;52.210;21.046;2023-03-04T14:38:25;5.10;99.90
11091;DHT22;5599;52.210;21.046;2023-03-04T14:41:01;5.30;99.90
11091;DHT22;5599;52.210;21.046;2023-03-04T14:43:37;5.50;1.00
11091;DHT22;5599;52.210;21.046;2023-03-04T14:46:12;5.50;99.90
11091;DHT22;5599;52.210;21.046;2023-03-04T14:48:46;5.50;1.00
11091;DHT22;5599;52.210;21.046;2023-03-04T14:51:31;5.50;1.00
11091;DHT22;5599;52.210;21.046;2023-03-04T14:54:01;5.40;99.90
11091;DHT22;5599;52.210;21.046;2023-03-04T14:56:34;5.40;99.90
11091;DHT22;5599;52.210;21.046;2023-03-04T14:59:03;5.40;99.90
11091;DHT22;5599;52.210;21.046;2023-03-04T15:01:34;5.70;72.90
11091;DHT22;5599;52.210;21.046;2023-03-04T15:04:08;5.80;1.00
11091;DHT22;5599;52.210;21.046;2023-03-04T15:06:48;6.00;1.00
11091;DHT22;5599;52.210;21.046;2023-03-04T15:09:25;5.70;1.00
11091;DHT22;5599;52.210;21.046;2023-03-04T15:12:01;5.70;1.00
11091;DHT22;5599;52.210;21.046;2023-03-04T15:14:43;5.60;1.00
11091;DHT22;5599;52.210;21.046;2023-03-04T15:17:27;5.50;1.00
11091;DHT22;5599;52.210;21.046;2023-03-04T15:20:00;5.30;1.00
11091;DHT22;5599;52.210;21.046;2023-03-04T15:22:55;5.20;1.00
11091;DHT22;5599;52.210;21.046;2023-03-04T15:25:24;5.20;1.00
11091;DHT22;5599;52.210;21.046;2023-03-04T15:27:54;5.00;1.00
11091;DHT22;5599;52.210;21.046;2023-03-04T15:30:32;5.00;99.90
11091;DHT22;5599;52.210;21.046;2023-03-04T15:33:02;4.90;1.00
11091;DHT22;5599;52.210;21.046;2023-03-04T15:35:32;4.90;1.00
11091;DHT22;5599;52.210;21.046;2023-03-04T15:38:05;4.70;99.90
11091;DHT22;5599;52.210;21.046;2023-03-04T15:40:40;4.70;99.90
11091;DHT22;5599;52.210;21.046;2023-03-04T15:43:14;4.60;99.90
11091;DHT22;5599;52.210;21.046;2023-03-04T15:45:47;4.40;99.90
11091;DHT22;5599;52.210;21.046;2023-03-04T15:48:18;4.00;99.90
11091;DHT22;5599;52.210;21.046;2023-03-04T15:50:53;3.80;99.90
11091;DHT22;5599;52.210;21.046;2023-03-04T15:53:30;3.70;99.90
11091;DHT22;5599;52.210;21.046;2023-03-04T15:56:09;3.70;99.90
11091;DHT22;5599;52.210;21.046;2023-03-04T15:58:42;3.60;99.90
11091;DHT22;5599;52.210;21.046;2023-03-04T16:01:16;3.40;99.90
11091;DHT22;5599;52.210;21.046;2023-03-04T16:03:48;3.30;99.90
11091;DHT22;5599;52.210;21.046;2023-03-04T16:06:20;3.20;99.90
11091;DHT22;5599;52.210;21.046;2023-03-04T16:08:55;3.10;99.90
11091;DHT22;5599;52.210;21.046;2023-03-04T16:11:27;3.10;99.90
11091;DHT22;5599;52.210;21.046;2023-03-04T16:14:02;3.00;99.90
11091;DHT22;5599;52.210;21.046;2023-03-04T16:16:32;3.00;99.90
11091;DHT22;5599;52.210;21.046;2023-03-04T16:19:03;2.90;99.90
11091;DHT22;5599;52.210;21.046;2023-03-04T16:21:35;2.90;99.90
11091;DHT22;5599;52.210;21.046;2023-03-04T16:24:11;2.80;99.90
11091;DHT22;5599;52.210;21.046;2023-03-04T16:26:43;2.70;99.90
11091;DHT22;5599;52.210;21.046;2023-03-04T16:29:18;2.70;99.90
11091;DHT22;5599;52.210;21.046;2023-03-04T16:31:48;2.70;99.90
11091;DHT22;5599;52.210;21.046;2023-03-04T16:34:18;2.60;99.90
11091;DHT22;5599;52.210;21.046;2023-03-04T16:36:55;2.50;99.90
11091;DHT22;5599;52.210;21.046;2023-03-04T16:39:30;2.40;99.90
11091;DHT22;5599;52.210;21.046;2023-03-04T16:42:02;2.30;99.90
11091;DHT22;5599;52.210;21.046;2023-03-04T16:44:35;2.30;99.90
11091;DHT22;5599;52.210;21.046;2023-03-04T16:47:05;2.30;99.90
11091;DHT22;5599;52.210;21.046;2023-03-04T16:49:37;2.30;1.00
11091;DHT22;5599;52.210;21.046;2023-03-04T16:52:13;2.20;1.00